Flight Track Log - Related Links

Times and Time Zones

All times are in EDT time to prevent confusion due to time zone crossing. See the SKW5564 flight status page for this flight to view local times or setup timezone preferences in your user account.

Time Position Orientation Groundspeed Altitude Reporting Facility
EDT Latitude Longitude Course Direction KTS MPH feet Rate Location/Type
Wed 04:23:14 PM 40.7692 -111.9750 103° East 175 201 5,000  Level Salt Lake Center
Wed 04:23:44 PM 40.7494 -111.9958 219° Southwest 190 219 5,900 1,341 Climbing Salt Lake Center
Wed 04:24:39 PM 40.7561 -112.0731 277° West 246 283 6,900 1,186 Climbing Salt Lake Center
Wed 04:25:00 PM 40.9874 -112.2333 North  Level FlightAware Approximate
Wed 04:25:10 PM 40.7819 -112.1006 321° Northwest 266 306 7,600  Level Salt Lake Center
Wed 04:25:46 PM 40.8181 -112.1483 315° West 278 320 9,200 1,920 Climbing Salt Lake Center
Wed 04:26:00 PM 41.0164 -112.0822 108° East  Level FlightAware Approximate
Wed 04:27:00 PM 40.9753 -111.9219 103° East  Level FlightAware Approximate
Wed 04:27:15 PM 40.9058 -112.2311 325° Northwest 306 352 11,600  Level Salt Lake Center
Wed 04:28:00 PM 40.9454 -111.7570 103° East  Level FlightAware Approximate
Wed 04:28:17 PM 40.9661 -112.1589 42° Northeast 318 366 13,400  Level Salt Lake Center
Wed 04:29:19 PM 40.9594 -112.0439 94° East 319 367 15,600 1,935 Climbing Salt Lake Center
Wed 04:30:21 PM 40.9481 -111.9011 96° East 339 390 17,400 1,500 Climbing Salt Lake Center
Wed 04:31:23 PM 40.9369 -111.7744 97° East 364 419 18,700 1,306 Climbing Salt Lake Center
Wed 04:32:25 PM 40.9258 -111.6372 96° East 383 441 20,100 1,355 Climbing Salt Lake Center
Wed 04:33:27 PM 40.9161 -111.4953 95° East 393 452 21,500 1,452 Climbing Salt Lake Center
Wed 04:34:29 PM 40.9011 -111.3194 96° East 403 464 23,100 1,500 Climbing Salt Lake Center
Wed 04:35:31 PM 40.8822 -111.1697 99° East 412 474 24,600 1,452 Climbing Salt Lake Center
Wed 04:36:33 PM 40.8639 -111.0181 99° East 419 482 26,100 1,452 Climbing Salt Lake Center
Wed 04:37:35 PM 40.8450 -110.8644 99° East 424 488 27,600 1,452 Climbing Salt Lake Center
Wed 04:38:37 PM 40.8258 -110.7117 99° East 422 486 29,100 1,258 Climbing Salt Lake Center
Wed 04:39:39 PM 40.8058 -110.5492 99° East 427 491 30,200 1,065 Climbing Salt Lake Center
Wed 04:40:41 PM 40.7836 -110.3719 99° East 436 502 31,300 968 Climbing Salt Lake Center
Wed 04:41:43 PM 40.7642 -110.2175 99° East 444 511 32,200 968 Climbing Salt Lake Center
Wed 04:42:45 PM 40.7397 -110.0358 100° East 449 517 33,300 780 Climbing Salt Lake Center
Wed 04:43:46 PM 40.7286 -109.8733 95° East 460 529 33,800 585 Climbing Salt Lake Center
Wed 04:44:48 PM 40.7156 -109.6789 95° East 475 547 34,500 677 Climbing Salt Lake Center
Wed 04:45:50 PM 40.7042 -109.5103 95° East 481 554 35,200 871 Climbing Salt Lake Center
Wed 04:46:52 PM 40.6894 -109.3136 96° East 481 554 36,300 919 Climbing Salt Lake Center
Wed 04:47:54 PM 40.6772 -109.1544 96° East 478 550 37,100 875 Climbing Salt Lake Center
Wed 04:48:28 PM 40.6689 -109.0367 95° East 473 544 37,700 813 Climbing Denver Center
Wed 04:49:30 PM 40.6556 -108.8728 96° East 468 539 38,400 629 Climbing Denver Center
Wed 04:50:32 PM 40.6408 -108.6836 96° East 464 534 39,000 265 Climbing Denver Center
Wed 04:51:46 PM 40.6275 -108.5214 96° East 463 533 39,000  Level Denver Center
Wed 04:52:49 PM 40.6086 -108.3000 96° East 473 544 39,000  Level Denver Center
Wed 04:53:51 PM 40.5936 -108.1289 97° East 487 560 39,000  Level Denver Center
Wed 04:54:53 PM 40.5767 -107.9281 96° East 493 567 39,000 -339 Level Denver Center
Wed 04:55:55 PM 40.5611 -107.7531 97° East 499 574 38,300 -871 Descending Denver Center
Wed 04:56:57 PM 40.5422 -107.5436 97° East 512 589 37,200 -1,016 Descending Denver Center
Wed 04:57:59 PM 40.5253 -107.3639 97° East 516 594 36,200 -968 Descending Denver Center
Wed 04:59:01 PM 40.5117 -107.1742 95° East 516 594 35,200 -968 Descending Denver Center
Wed 05:00:03 PM 40.5044 -106.9861 93° East 514 592 34,200 -1,016 Descending Denver Center
Wed 05:01:05 PM 40.4931 -106.8006 95° East 509 586 33,100 -1,016 Descending Denver Center
Wed 05:02:07 PM 40.4833 -106.6183 94° East 501 577 32,100 -720 Descending Denver Center
Wed 05:03:10 PM 40.4717 -106.4211 94° East 501 577 31,600 -624 Descending Denver Center
Wed 05:04:12 PM 40.4614 -106.2181 94° East 497 572 30,800 -919 Descending Denver Center
Wed 05:05:14 PM 40.4481 -106.0308 95° East 508 585 29,700 -1,113 Descending Denver Center
Wed 05:06:16 PM 40.4258 -105.8450 99° East 511 588 28,500 -2,371 Descending Denver Center
Wed 05:07:18 PM 40.3942 -105.6753 104° East 479 551 24,800 -3,823 Descending Denver Center
Wed 05:08:20 PM 40.3694 -105.5128 101° East 462 532 20,600 -2,806 Descending Denver Center
Wed 05:09:22 PM 40.3183 -105.3678 115° Southeast 386 444 19,000 -706 Descending Denver Center
Wed 05:10:36 PM 40.2567 -105.2767 132° Southeast 337 388 19,000  Level Denver Center
Wed 05:11:38 PM 40.1797 -105.1594 131° Southeast 346 398 19,000 -581 Level Denver Center
Wed 05:12:40 PM 40.1133 -105.0567 130° Southeast 343 395 17,800 -960 Descending Denver Center
Wed 05:13:43 PM 40.0544 -104.9639 130° Southeast 335 386 17,000 -823 Descending Denver Center
Wed 05:14:44 PM 40.0019 -104.8836 130° Southeast 288 331 16,100 -1,122 Descending Denver Center
Wed 05:15:46 PM 39.9394 -104.8156 140° Southeast 273 314 14,700 -1,200 Descending Denver Center
Wed 05:16:49 PM 39.8669 -104.8089 176° South 269 310 13,600 -1,200 Descending Denver Center
Wed 05:17:51 PM 39.7897 -104.8164 184° South 261 300 12,200 -1,113 Descending Denver Center
Wed 05:18:53 PM 39.7219 -104.8236 185° South 248 285 11,300 -1,161 Descending Denver Center
Wed 05:19:55 PM 39.6858 -104.7714 132° Southeast 231 266 9,800 -1,500 Descending Denver Center
Wed 05:20:57 PM 39.7375 -104.7242 35° Northeast 228 262 8,200 -1,548 Descending Denver Center

Login

Don't have an account? Register now (free) for customized features, flight alerts, and more!